createdAt,value
2019-05-22T00:00:58.482Z,11.26
2019-05-22T00:03:36.424Z,11.14
2019-05-22T00:06:06.616Z,11.04
2019-05-22T00:08:37.540Z,10.93
2019-05-22T00:11:08.892Z,10.87
2019-05-22T00:13:40.427Z,10.87
2019-05-22T00:16:12.359Z,10.92
2019-05-22T00:18:42.938Z,11.05
2019-05-22T00:21:13.521Z,11.08
2019-05-22T00:23:45.042Z,10.95
2019-05-22T00:26:15.342Z,10.83
2019-05-22T00:28:45.755Z,10.77
2019-05-22T00:31:16.453Z,10.95
2019-05-22T00:33:46.252Z,10.91
2019-05-22T00:36:17.668Z,10.85
2019-05-22T00:38:48.441Z,10.71
2019-05-22T00:41:20.694Z,10.63
2019-05-22T00:43:53.914Z,10.64
2019-05-22T00:46:25.374Z,10.73
2019-05-22T00:48:55.049Z,10.60
2019-05-22T00:51:29.617Z,10.57
2019-05-22T00:54:01.484Z,10.58
2019-05-22T00:56:44.875Z,10.58
2019-05-22T00:59:29.291Z,10.66
2019-05-22T01:02:04.662Z,10.65
2019-05-22T01:04:37.146Z,10.62
2019-05-22T01:07:18.575Z,10.52
2019-05-22T01:09:52.465Z,10.42
2019-05-22T01:12:30.015Z,10.37
2019-05-22T01:15:07.323Z,10.29
2019-05-22T01:17:38.350Z,10.23
2019-05-22T01:20:11.458Z,10.28
2019-05-22T01:22:43.067Z,10.24
2019-05-22T01:25:17.066Z,10.20
2019-05-22T01:27:48.657Z,10.17
2019-05-22T01:30:24.055Z,10.15
2019-05-22T01:32:56.579Z,10.13
2019-05-22T01:35:31.334Z,10.08
2019-05-22T01:38:02.180Z,10.01
2019-05-22T01:40:50.132Z,9.97
2019-05-22T01:43:26.571Z,9.97
2019-05-22T01:45:59.729Z,10.05
2019-05-22T01:48:38.454Z,10.04
2019-05-22T01:51:10.761Z,9.97
2019-05-22T01:53:44.417Z,9.95
2019-05-22T01:56:17.285Z,9.84
2019-05-22T01:58:47.462Z,9.71
2019-05-22T02:01:20.433Z,9.62
2019-05-22T02:03:51.888Z,9.58
2019-05-22T02:06:25.133Z,9.59
2019-05-22T02:09:17.554Z,9.60
2019-05-22T02:11:49.662Z,9.52
2019-05-22T02:14:22.608Z,9.38
2019-05-22T02:16:57.187Z,9.24
2019-05-22T02:19:26.167Z,9.12
2019-05-22T02:21:56.574Z,9.00
2019-05-22T02:24:28.805Z,8.89
2019-05-22T02:26:59.472Z,8.84
2019-05-22T02:29:30.286Z,8.77
2019-05-22T02:32:03.270Z,8.70
2019-05-22T02:34:34.034Z,8.64
2019-05-22T02:37:05.403Z,8.61
2019-05-22T02:39:36.490Z,8.63
2019-05-22T02:42:13.314Z,8.64
2019-05-22T02:44:44.182Z,8.66
2019-05-22T02:47:20.125Z,8.68
2019-05-22T02:49:48.858Z,8.70
2019-05-22T02:52:20.848Z,8.75
2019-05-22T02:54:50.734Z,8.76
2019-05-22T02:57:20.804Z,8.76
2019-05-22T02:59:50.941Z,8.82
2019-05-22T03:02:23.563Z,8.85
2019-05-22T03:05:09.683Z,8.85
2019-05-22T03:07:42.172Z,8.85
2019-05-22T03:10:14.644Z,8.87
2019-05-22T03:12:46.126Z,8.89
2019-05-22T03:15:20.472Z,8.94
2019-05-22T03:17:55.549Z,8.96
2019-05-22T03:20:29.331Z,9.02
2019-05-22T03:23:18.659Z,9.07
2019-05-22T03:25:49.081Z,9.08
2019-05-22T03:28:19.783Z,9.13
2019-05-22T03:30:52.559Z,9.14
2019-05-22T03:33:23.413Z,9.13
2019-05-22T03:36:10.195Z,9.12
2019-05-22T03:38:43.164Z,9.07
2019-05-22T03:41:17.112Z,8.99
2019-05-22T03:43:48.868Z,8.78
2019-05-22T03:46:36.346Z,8.64
2019-05-22T03:49:27.496Z,8.53
2019-05-22T03:51:41.785Z,8.51
2019-05-22T03:54:13.134Z,8.44
2019-05-22T03:56:44.543Z,8.40
2019-05-22T03:59:15.623Z,8.34
2019-05-22T04:01:47.341Z,8.29
2019-05-22T04:04:34.361Z,8.26
2019-05-22T04:07:07.240Z,8.21
2019-05-22T04:09:40.154Z,8.18
2019-05-22T04:12:12.367Z,8.18
2019-05-22T04:14:43.867Z,8.14
2019-05-22T04:17:15.438Z,8.11
2019-05-22T04:19:50.308Z,8.10
2019-05-22T04:22:19.367Z,8.11
2019-05-22T04:24:50.492Z,8.12
2019-05-22T04:27:21.972Z,8.14
2019-05-22T04:29:54.970Z,8.17
2019-05-22T04:32:29.052Z,8.21
2019-05-22T04:34:59.326Z,8.23
2019-05-22T04:37:31.317Z,8.22
2019-05-22T04:40:21.287Z,8.27
2019-05-22T04:42:52.765Z,8.30
2019-05-22T04:45:23.831Z,8.34
2019-05-22T04:48:04.215Z,8.34
2019-05-22T04:50:35.595Z,8.39
2019-05-22T04:53:06.225Z,8.42
2019-05-22T04:55:37.338Z,8.41
2019-05-22T04:58:09.355Z,8.42
2019-05-22T05:00:40.324Z,8.47
2019-05-22T05:03:12.193Z,8.51
2019-05-22T05:05:45.234Z,8.56
2019-05-22T05:08:16.336Z,8.59
2019-05-22T05:10:52.410Z,8.64
2019-05-22T05:13:23.437Z,8.76
2019-05-22T05:15:54.024Z,8.84
2019-05-22T05:18:25.160Z,8.94
2019-05-22T05:20:56.025Z,9.06
2019-05-22T05:23:27.263Z,9.21
2019-05-22T05:25:57.638Z,9.31
2019-05-22T05:28:29.052Z,9.44
2019-05-22T05:30:59.751Z,9.55
2019-05-22T05:33:31.325Z,9.65
2019-05-22T05:36:02.244Z,9.79
2019-05-22T05:38:39.864Z,9.86
2019-05-22T05:41:11.782Z,9.96
2019-05-22T05:43:42.849Z,10.07
2019-05-22T05:46:14.784Z,10.17
2019-05-22T05:48:45.891Z,10.25
2019-05-22T05:51:22.970Z,10.32
2019-05-22T05:54:07.395Z,10.48
2019-05-22T05:56:39.977Z,10.54
2019-05-22T05:59:13.016Z,10.60
2019-05-22T06:01:48.898Z,10.64
2019-05-22T06:04:34.068Z,10.71
2019-05-22T06:07:02.490Z,10.79
2019-05-22T06:09:36.595Z,10.86
2019-05-22T06:12:08.781Z,10.89
2019-05-22T06:14:41.867Z,10.97
2019-05-22T06:17:45.623Z,11.05
2019-05-22T06:20:20.180Z,11.13
2019-05-22T06:23:30.549Z,11.24
2019-05-22T06:26:02.589Z,11.35
2019-05-22T06:28:39.267Z,11.46
2019-05-22T06:31:17.262Z,11.54
2019-05-22T06:33:48.785Z,11.61
2019-05-22T06:36:22.078Z,11.70
2019-05-22T06:39:01.193Z,11.79
2019-05-22T06:41:33.639Z,11.85
2019-05-22T06:44:34.401Z,11.98
2019-05-22T06:47:06.741Z,12.07
2019-05-22T06:49:40.697Z,12.10
2019-05-22T06:52:13.041Z,12.13
2019-05-22T06:54:44.300Z,12.16
2019-05-22T06:57:16.579Z,12.19
2019-05-22T07:00:10.702Z,12.21
2019-05-22T07:02:23.740Z,12.20
2019-05-22T07:04:54.957Z,12.19
2019-05-22T07:07:26.938Z,12.30
2019-05-22T07:09:58.235Z,12.41
2019-05-22T07:12:29.677Z,12.50
2019-05-22T07:15:11.443Z,12.54
2019-05-22T07:17:42.317Z,12.58
2019-05-22T07:20:17.268Z,12.67
2019-05-22T07:22:48.170Z,12.91
2019-05-22T07:25:20.644Z,13.05
2019-05-22T07:27:51.757Z,13.25
2019-05-22T07:30:24.043Z,13.36
2019-05-22T07:32:54.970Z,13.47
2019-05-22T07:35:44.147Z,13.53
2019-05-22T07:38:00.302Z,13.54
2019-05-22T07:40:31.617Z,13.59
2019-05-22T07:43:02.213Z,13.72
2019-05-22T07:45:34.693Z,13.81
2019-05-22T07:48:07.552Z,13.73
2019-05-22T07:50:40.059Z,13.97
2019-05-22T07:53:11.440Z,14.17
2019-05-22T07:55:42.128Z,14.34
2019-05-22T07:58:18.763Z,14.43
2019-05-22T08:00:56.129Z,14.42
2019-05-22T08:03:27.653Z,14.64
2019-05-22T08:06:00.431Z,14.83
2019-05-22T08:08:33.849Z,15.04
2019-05-22T08:11:05.842Z,15.20
2019-05-22T08:13:38.395Z,15.13
2019-05-22T08:16:11.598Z,14.85
2019-05-22T08:18:43.340Z,14.82
2019-05-22T08:21:14.190Z,14.81
2019-05-22T08:23:45.927Z,14.90
2019-05-22T08:26:17.053Z,15.07
2019-05-22T08:28:48.314Z,15.11
2019-05-22T08:31:22.180Z,15.18
2019-05-22T08:33:53.081Z,15.49
2019-05-22T08:36:23.645Z,15.87
2019-05-22T08:38:54.385Z,16.29
2019-05-22T08:41:29.479Z,16.61
2019-05-22T08:44:15.966Z,17.09
2019-05-22T08:46:37.934Z,17.56
2019-05-22T08:49:09.018Z,18.01
2019-05-22T08:51:42.717Z,18.04
2019-05-22T08:54:15.765Z,17.96
2019-05-22T08:56:51.301Z,18.32
2019-05-22T08:59:23.010Z,18.67
2019-05-22T09:01:55.124Z,19.13
2019-05-22T09:04:27.094Z,18.79
2019-05-22T09:06:57.732Z,19.63
2019-05-22T09:09:28.490Z,20.16
2019-05-22T09:11:59.220Z,20.56
2019-05-22T09:14:29.850Z,20.33
2019-05-22T09:17:00.558Z,20.76
2019-05-22T09:19:31.848Z,20.23
2019-05-22T09:22:05.513Z,20.58
2019-05-22T09:24:37.111Z,21.08
2019-05-22T09:27:09.368Z,21.47
2019-05-22T09:29:39.979Z,21.61
2019-05-22T09:32:10.741Z,21.91
2019-05-22T09:34:41.461Z,22.48
2019-05-22T09:37:12.099Z,21.59
2019-05-22T09:39:42.816Z,21.57
2019-05-22T09:42:17.066Z,21.76
2019-05-22T09:44:48.949Z,21.79
2019-05-22T09:47:23.983Z,21.93
2019-05-22T09:49:54.725Z,21.50
2019-05-22T09:52:26.541Z,21.08
2019-05-22T09:54:58.584Z,21.97
2019-05-22T09:57:29.291Z,22.01
2019-05-22T10:00:02.555Z,21.46
2019-05-22T10:02:34.032Z,19.85
2019-05-22T10:05:06.903Z,20.80
2019-05-22T10:07:57.130Z,21.30
2019-05-22T10:10:13.339Z,22.20
2019-05-22T10:12:45.636Z,21.70
2019-05-22T10:15:16.369Z,20.97
2019-05-22T10:17:51.392Z,21.13
2019-05-22T10:20:24.097Z,21.44
2019-05-22T10:22:54.650Z,21.37
2019-05-22T10:25:25.032Z,20.39
2019-05-22T10:27:59.247Z,19.92
2019-05-22T10:30:28.850Z,19.95
2019-05-22T10:32:59.253Z,21.47
2019-05-22T10:35:30.462Z,22.82
2019-05-22T10:38:01.749Z,23.51
2019-05-22T10:40:35.264Z,23.56
2019-05-22T10:43:06.160Z,24.06
2019-05-22T10:45:37.611Z,24.53
2019-05-22T10:48:10.622Z,24.33
2019-05-22T10:50:42.125Z,24.43
2019-05-22T10:53:30.330Z,23.65
2019-05-22T10:55:46.637Z,24.42
2019-05-22T10:58:17.365Z,25.06
2019-05-22T11:00:48.788Z,25.29
2019-05-22T11:03:20.680Z,25.25
2019-05-22T11:06:05.631Z,25.65
2019-05-22T11:08:23.695Z,25.46
2019-05-22T11:10:55.923Z,24.94
2019-05-22T11:13:26.584Z,25.26
2019-05-22T11:15:59.048Z,25.02
2019-05-22T11:18:29.552Z,24.81
2019-05-22T11:21:00.403Z,25.21
2019-05-22T11:23:31.153Z,24.74
2019-05-22T11:26:01.908Z,25.15
2019-05-22T11:28:35.981Z,25.38
2019-05-22T11:31:06.166Z,25.02
2019-05-22T11:33:36.779Z,26.03
2019-05-22T11:36:08.336Z,26.43
2019-05-22T11:38:39.004Z,26.90
2019-05-22T11:41:12.103Z,27.10
2019-05-22T11:43:43.063Z,24.29
2019-05-22T11:46:14.053Z,23.16
2019-05-22T11:48:44.392Z,24.69
2019-05-22T11:51:14.894Z,25.50
2019-05-22T11:53:45.510Z,25.47
2019-05-22T11:56:16.191Z,24.93
2019-05-22T11:58:46.962Z,23.99
2019-05-22T12:01:18.305Z,23.04
2019-05-22T12:03:50.005Z,23.27
2019-05-22T12:06:21.100Z,23.59
2019-05-22T12:08:52.110Z,24.75
2019-05-22T12:11:22.860Z,22.52
2019-05-22T12:13:54.651Z,22.30
2019-05-22T12:16:25.137Z,23.90
2019-05-22T12:18:58.716Z,24.60
2019-05-22T12:21:28.127Z,23.32
2019-05-22T12:23:58.757Z,24.74
2019-05-22T12:26:30.573Z,26.71
2019-05-22T12:29:01.404Z,27.14
2019-05-22T12:31:32.246Z,25.52
2019-05-22T12:34:03.313Z,26.31
2019-05-22T12:36:34.501Z,26.60
2019-05-22T12:39:08.464Z,25.62
2019-05-22T12:41:40.210Z,23.65
2019-05-22T12:44:11.518Z,24.04
2019-05-22T12:46:42.554Z,23.04
2019-05-22T12:49:14.396Z,23.47
2019-05-22T12:51:46.557Z,24.46
2019-05-22T12:54:17.899Z,23.29
2019-05-22T12:56:49.347Z,22.75
2019-05-22T12:59:20.534Z,22.18
2019-05-22T13:01:53.269Z,24.60
2019-05-22T13:04:24.837Z,26.16
2019-05-22T13:06:55.488Z,27.52
2019-05-22T13:09:26.508Z,27.47
2019-05-22T13:11:57.505Z,27.42
2019-05-22T13:14:28.386Z,25.14
2019-05-22T13:17:01.480Z,23.85
2019-05-22T13:19:34.278Z,23.41
2019-05-22T13:22:08.822Z,22.91
2019-05-22T13:24:39.723Z,23.72
2019-05-22T13:27:12.171Z,24.26
2019-05-22T13:29:43.399Z,25.29
2019-05-22T13:32:17.846Z,26.18
2019-05-22T13:34:48.713Z,26.65
2019-05-22T13:37:19.582Z,27.37
2019-05-22T13:39:51.733Z,27.30
2019-05-22T13:42:23.016Z,28.29
2019-05-22T13:44:54.400Z,26.21
2019-05-22T13:47:25.210Z,24.84
2019-05-22T13:49:55.648Z,23.79
2019-05-22T13:52:26.133Z,23.40
2019-05-22T13:54:57.907Z,22.61
2019-05-22T13:57:29.378Z,25.03
2019-05-22T14:00:00.045Z,26.38
2019-05-22T14:02:30.847Z,27.32
2019-05-22T14:05:02.613Z,26.69
2019-05-22T14:07:33.241Z,27.76
2019-05-22T14:10:08.852Z,27.68
2019-05-22T14:12:39.777Z,26.80
2019-05-22T14:15:11.441Z,27.76
2019-05-22T14:17:42.262Z,27.73
2019-05-22T14:20:14.297Z,27.66
2019-05-22T14:22:44.769Z,28.54
2019-05-22T14:25:16.098Z,29.46
2019-05-22T14:27:46.956Z,29.63
2019-05-22T14:30:19.393Z,27.37
2019-05-22T14:32:50.228Z,27.44
2019-05-22T14:35:24.263Z,25.83
2019-05-22T14:37:53.907Z,24.82
2019-05-22T14:40:27.137Z,25.24
2019-05-22T14:42:58.505Z,25.89
2019-05-22T14:45:29.630Z,26.77
2019-05-22T14:48:00.983Z,26.87
2019-05-22T14:50:34.339Z,27.89
2019-05-22T14:53:05.330Z,26.29
2019-05-22T14:55:37.854Z,25.55
2019-05-22T14:58:09.727Z,26.19
2019-05-22T15:00:40.650Z,26.61
2019-05-22T15:03:12.322Z,27.15
2019-05-22T15:05:43.130Z,27.34
2019-05-22T15:08:13.905Z,27.67
2019-05-22T15:10:45.221Z,27.65
2019-05-22T15:13:16.537Z,26.57
2019-05-22T15:15:48.995Z,27.20
2019-05-22T15:18:19.654Z,27.51
2019-05-22T15:20:57.734Z,27.45
2019-05-22T15:23:28.966Z,28.16
2019-05-22T15:26:01.690Z,27.01
2019-05-22T15:28:32.532Z,27.41
2019-05-22T15:31:04.575Z,27.60
2019-05-22T15:33:37.357Z,27.80
2019-05-22T15:36:10.587Z,27.34
2019-05-22T15:38:44.282Z,27.37
2019-05-22T15:41:15.792Z,26.21
2019-05-22T15:43:52.509Z,25.20
2019-05-22T15:46:22.680Z,25.51
2019-05-22T15:48:54.486Z,25.85
2019-05-22T15:51:29.446Z,25.54
2019-05-22T15:54:02.826Z,25.32
2019-05-22T15:56:36.648Z,24.09
2019-05-22T15:59:09.411Z,23.41
2019-05-22T16:01:40.224Z,22.56
2019-05-22T16:04:13.317Z,22.16
2019-05-22T16:06:43.916Z,21.98
2019-05-22T16:09:16.646Z,21.93
2019-05-22T16:11:51.333Z,21.55
2019-05-22T16:14:22.414Z,21.53
2019-05-22T16:16:54.504Z,21.42
2019-05-22T16:19:27.986Z,20.95
2019-05-22T16:22:01.656Z,20.66
2019-05-22T16:24:32.286Z,20.71
2019-05-22T16:27:04.556Z,20.87
2019-05-22T16:29:40.604Z,21.07
2019-05-22T16:32:12.508Z,21.24
2019-05-22T16:34:42.885Z,21.32
2019-05-22T16:37:14.642Z,21.20
2019-05-22T16:39:44.892Z,21.12
2019-05-22T16:42:17.020Z,21.04
2019-05-22T16:44:48.821Z,21.05
2019-05-22T16:47:22.066Z,20.92
2019-05-22T16:49:54.211Z,20.82
2019-05-22T16:52:27.484Z,20.62
2019-05-22T16:55:01.644Z,20.47
2019-05-22T16:57:33.962Z,20.37
2019-05-22T17:00:10.011Z,20.30
2019-05-22T17:02:42.880Z,20.22
2019-05-22T17:05:15.958Z,20.20
2019-05-22T17:07:47.121Z,20.01
2019-05-22T17:10:17.978Z,19.97
2019-05-22T17:12:49.310Z,19.95
2019-05-22T17:15:21.858Z,19.77
2019-05-22T17:17:53.418Z,19.55
2019-05-22T17:23:15.078Z,19.38
2019-05-22T17:25:46.472Z,19.67
2019-05-22T17:28:18.751Z,19.89
2019-05-22T17:30:50.506Z,20.10
2019-05-22T17:33:21.985Z,20.21
2019-05-22T17:35:56.127Z,20.27
2019-05-22T17:38:30.953Z,20.22
2019-05-22T17:41:03.728Z,20.22
2019-05-22T17:43:37.326Z,20.16
2019-05-22T17:46:08.239Z,20.06
2019-05-22T17:48:40.014Z,20.08
2019-05-22T17:51:10.941Z,20.00
2019-05-22T17:53:41.087Z,20.00
2019-05-22T17:56:11.676Z,19.89
2019-05-22T17:58:42.454Z,19.79
2019-05-22T18:01:14.034Z,19.77
2019-05-22T18:03:44.801Z,19.71
2019-05-22T18:06:15.547Z,19.58
2019-05-22T18:08:46.090Z,19.50
2019-05-22T18:11:18.366Z,19.37
2019-05-22T18:14:04.378Z,19.22
2019-05-22T18:16:35.634Z,19.05
2019-05-22T18:19:09.079Z,18.93
2019-05-22T18:21:40.318Z,18.69
2019-05-22T18:24:10.692Z,18.43
2019-05-22T18:26:40.788Z,18.17
2019-05-22T18:29:11.075Z,17.91
2019-05-22T18:31:41.700Z,17.90
2019-05-22T18:34:12.070Z,17.82
2019-05-22T18:36:42.450Z,17.63
2019-05-22T18:39:14.300Z,17.38
2019-05-22T18:41:44.513Z,17.08
2019-05-22T18:44:14.856Z,16.89
2019-05-22T18:46:47.279Z,16.69
2019-05-22T18:49:18.866Z,16.61
2019-05-22T18:51:49.850Z,16.44
2019-05-22T18:54:21.786Z,16.32
2019-05-22T18:56:52.067Z,16.16
2019-05-22T18:59:22.477Z,16.05
2019-05-22T19:01:53.261Z,15.94
2019-05-22T19:04:24.975Z,15.80
2019-05-22T19:06:56.148Z,15.74
2019-05-22T19:09:27.029Z,15.68
2019-05-22T19:11:59.206Z,15.59
2019-05-22T19:14:29.934Z,15.55
2019-05-22T19:17:01.123Z,15.45
2019-05-22T19:19:31.533Z,15.40
2019-05-22T19:22:01.916Z,15.30
2019-05-22T19:24:32.379Z,15.25
2019-05-22T19:27:02.465Z,15.16
2019-05-22T19:29:32.942Z,15.06
2019-05-22T19:32:03.097Z,14.98
2019-05-22T19:34:34.705Z,14.91
2019-05-22T19:37:05.098Z,14.85
2019-05-22T19:39:36.121Z,14.70
2019-05-22T19:42:08.063Z,14.57
2019-05-22T19:44:38.027Z,14.45
2019-05-22T19:47:09.167Z,14.38
2019-05-22T19:49:39.203Z,14.34
2019-05-22T19:52:10.766Z,14.32
2019-05-22T19:54:41.598Z,14.32
2019-05-22T19:57:12.529Z,14.22
2019-05-22T19:59:43.172Z,14.20
2019-05-22T20:02:12.934Z,14.21
2019-05-22T20:04:43.110Z,14.16
2019-05-22T20:07:14.314Z,14.11
2019-05-22T20:09:44.325Z,14.05
2019-05-22T20:12:14.839Z,14.03
2019-05-22T20:14:44.666Z,13.94
2019-05-22T20:17:14.575Z,13.82
2019-05-22T20:19:44.566Z,13.81
2019-05-22T20:22:16.240Z,13.74
2019-05-22T20:24:47.618Z,13.63
2019-05-22T20:27:17.477Z,13.54
2019-05-22T20:29:47.456Z,13.46
2019-05-22T20:32:17.191Z,13.42
2019-05-22T20:34:47.662Z,13.38
2019-05-22T20:37:18.298Z,13.32
2019-05-22T20:39:50.009Z,13.27
2019-05-22T20:42:22.111Z,13.19
2019-05-22T20:44:52.603Z,13.08
2019-05-22T20:47:27.066Z,13.00
2019-05-22T20:49:57.538Z,12.97
2019-05-22T20:52:30.269Z,12.96
2019-05-22T20:55:00.650Z,13.10
2019-05-22T20:57:32.646Z,13.09
2019-05-22T21:00:03.384Z,13.08
2019-05-22T21:02:34.446Z,12.98
2019-05-22T21:05:06.893Z,12.91
2019-05-22T21:07:40.991Z,12.87
2019-05-22T21:10:11.600Z,12.79
2019-05-22T21:12:43.441Z,12.73
2019-05-22T21:15:14.263Z,12.72
2019-05-22T21:17:47.180Z,12.73
2019-05-22T21:20:18.688Z,12.72
2019-05-22T21:22:50.285Z,12.72
2019-05-22T21:25:20.066Z,12.72
2019-05-22T21:27:51.651Z,12.67
2019-05-22T21:30:23.330Z,12.60
2019-05-22T21:32:55.165Z,12.50
2019-05-22T21:35:25.154Z,12.40
2019-05-22T21:37:55.795Z,12.31
2019-05-22T21:40:26.558Z,12.31
2019-05-22T21:42:56.566Z,12.31
2019-05-22T21:45:26.846Z,12.34
2019-05-22T21:47:56.692Z,12.31
2019-05-22T21:50:27.182Z,12.26
2019-05-22T21:52:57.223Z,12.23
2019-05-22T21:55:27.775Z,12.18
2019-05-22T21:57:58.149Z,12.09
2019-05-22T22:00:40.690Z,12.03
2019-05-22T22:03:13.729Z,11.95
2019-05-22T22:05:44.848Z,11.94
2019-05-22T22:08:14.610Z,11.95
2019-05-22T22:10:44.884Z,11.97
2019-05-22T22:13:15.503Z,11.98
2019-05-22T22:15:45.549Z,11.97
2019-05-22T22:18:15.581Z,11.95
2019-05-22T22:20:45.902Z,11.90
2019-05-22T22:23:17.885Z,11.88
2019-05-22T22:25:48.688Z,11.86
2019-05-22T22:28:53.359Z,11.83
2019-05-22T22:31:24.919Z,11.80
2019-05-22T22:34:02.412Z,11.76
2019-05-22T22:36:32.631Z,11.76
2019-05-22T22:39:03.201Z,11.76
2019-05-22T22:41:33.210Z,11.72
2019-05-22T22:44:05.554Z,11.67
2019-05-22T22:46:40.164Z,11.65
2019-05-22T22:49:15.383Z,11.65
2019-05-22T22:51:46.971Z,11.64
2019-05-22T22:54:16.929Z,11.59
2019-05-22T22:56:47.563Z,11.53
2019-05-22T22:59:17.573Z,11.46
2019-05-22T23:01:52.278Z,11.39
2019-05-22T23:04:27.095Z,11.35
2019-05-22T23:06:58.091Z,11.32
2019-05-22T23:09:29.660Z,11.30
2019-05-22T23:12:00.770Z,11.29
2019-05-22T23:14:31.201Z,11.30
2019-05-22T23:17:00.945Z,11.31
2019-05-22T23:19:32.519Z,11.28
2019-05-22T23:22:01.579Z,11.24
2019-05-22T23:24:32.942Z,11.19
2019-05-22T23:27:02.690Z,11.16
2019-05-22T23:29:32.928Z,11.13
2019-05-22T23:32:04.098Z,11.13
2019-05-22T23:34:34.378Z,11.12
2019-05-22T23:37:05.969Z,11.02
2019-05-22T23:39:36.497Z,10.93
2019-05-22T23:42:12.484Z,10.92
2019-05-22T23:44:42.821Z,10.90
2019-05-22T23:47:13.096Z,10.92
2019-05-22T23:49:43.965Z,10.93
2019-05-22T23:52:15.363Z,10.93
2019-05-22T23:54:45.999Z,10.87
2019-05-22T23:57:16.884Z,10.79
2019-05-22T23:59:49.667Z,10.74
